createdAt,value
2022-09-06T00:02:21.300Z,1.40
2022-09-06T00:04:49.443Z,1.30
2022-09-06T00:07:17.377Z,1.55
2022-09-06T00:09:46.725Z,1.67
2022-09-06T00:12:14.580Z,1.80
2022-09-06T00:14:42.534Z,1.60
2022-09-06T00:17:10.601Z,1.63
2022-09-06T00:19:38.480Z,1.80
2022-09-06T00:22:06.547Z,1.83
2022-09-06T00:24:34.396Z,2.00
2022-09-06T00:27:03.697Z,1.80
2022-09-06T00:29:31.753Z,1.60
2022-09-06T00:32:00.460Z,1.70
2022-09-06T00:34:29.129Z,1.83
2022-09-06T00:36:57.176Z,1.70
2022-09-06T00:39:25.201Z,1.47
2022-09-06T00:41:53.194Z,1.63
2022-09-06T00:44:22.785Z,1.60
2022-09-06T00:46:53.058Z,1.93
2022-09-06T00:49:25.755Z,2.00
2022-09-06T00:51:56.919Z,1.70
2022-09-06T00:54:25.141Z,2.07
2022-09-06T00:56:53.110Z,1.90
2022-09-06T00:59:23.190Z,1.60
2022-09-06T01:01:51.367Z,1.73
2022-09-06T01:04:19.698Z,2.10
2022-09-06T01:06:58.121Z,1.70
2022-09-06T01:09:37.639Z,1.83
2022-09-06T01:12:18.903Z,1.53
2022-09-06T01:15:06.191Z,1.63
2022-09-06T01:17:45.610Z,1.53
2022-09-06T01:20:32.561Z,1.73
2022-09-06T01:23:29.612Z,1.77
2022-09-06T01:26:11.638Z,1.50
2022-09-06T01:28:43.920Z,1.77
2022-09-06T01:31:26.000Z,1.60
2022-09-06T01:34:12.288Z,1.57
2022-09-06T01:37:08.585Z,1.40
2022-09-06T01:39:36.697Z,1.10
2022-09-06T01:42:09.172Z,1.60
2022-09-06T01:44:40.381Z,1.50
2022-09-06T01:47:17.302Z,1.50
2022-09-06T01:49:55.154Z,1.50
2022-09-06T01:52:33.584Z,1.53
2022-09-06T01:55:18.554Z,1.20
2022-09-06T01:58:08.439Z,1.20
2022-09-06T02:00:48.160Z,1.10
2022-09-06T02:03:24.487Z,1.40
2022-09-06T02:05:55.408Z,1.47
2022-09-06T02:08:28.879Z,1.30
2022-09-06T02:11:00.813Z,1.30
2022-09-06T02:13:34.465Z,1.40
2022-09-06T02:16:05.696Z,1.23
2022-09-06T02:18:39.522Z,1.30
2022-09-06T02:21:10.209Z,1.73
2022-09-06T02:23:41.550Z,1.50
2022-09-06T02:26:14.360Z,1.30
2022-09-06T02:28:42.655Z,1.20
2022-09-06T02:31:17.809Z,1.13
2022-09-06T02:33:47.379Z,1.10
2022-09-06T02:36:15.922Z,1.27
2022-09-06T02:38:45.661Z,1.40
2022-09-06T02:41:14.984Z,1.30
2022-09-06T02:43:43.916Z,1.30
2022-09-06T02:46:13.836Z,1.20
2022-09-06T02:48:42.137Z,1.00
2022-09-06T02:51:10.782Z,1.20
2022-09-06T02:53:38.908Z,1.20
2022-09-06T02:56:07.274Z,1.10
2022-09-06T02:58:35.556Z,1.00
2022-09-06T03:01:04.081Z,1.20
2022-09-06T03:03:33.577Z,1.20
2022-09-06T03:06:01.509Z,1.10
2022-09-06T03:08:33.609Z,1.20
2022-09-06T03:11:02.148Z,1.30
2022-09-06T03:13:30.789Z,0.93
2022-09-06T03:16:00.343Z,1.30
2022-09-06T03:18:31.033Z,1.40
2022-09-06T03:21:00.461Z,1.17
2022-09-06T03:23:30.215Z,1.00
2022-09-06T03:25:58.529Z,1.00
2022-09-06T03:28:27.046Z,1.10
2022-09-06T03:30:55.360Z,1.00
2022-09-06T03:33:23.945Z,1.00
2022-09-06T03:35:53.918Z,1.00
2022-09-06T03:38:24.923Z,0.90
2022-09-06T03:40:53.350Z,1.00
2022-09-06T03:43:23.189Z,0.90
2022-09-06T03:45:53.196Z,1.20
2022-09-06T03:48:23.390Z,1.13
2022-09-06T03:50:55.747Z,1.10
2022-09-06T03:53:27.272Z,1.03
2022-09-06T03:55:57.762Z,1.13
2022-09-06T03:58:30.046Z,0.77
2022-09-06T04:01:04.573Z,1.40
2022-09-06T04:03:33.147Z,0.97
2022-09-06T04:06:01.057Z,1.07
2022-09-06T04:08:30.777Z,1.20
2022-09-06T04:10:59.536Z,1.10
2022-09-06T04:13:28.762Z,1.20
2022-09-06T04:15:57.005Z,1.13
2022-09-06T04:18:25.058Z,1.10
2022-09-06T04:20:55.964Z,1.00
2022-09-06T04:23:24.973Z,1.20
2022-09-06T04:25:56.692Z,1.20
2022-09-06T04:28:26.796Z,1.27
2022-09-06T04:30:55.943Z,1.00
2022-09-06T04:33:26.210Z,0.97
2022-09-06T04:35:55.001Z,1.20
2022-09-06T04:38:23.049Z,1.20
2022-09-06T04:40:51.280Z,1.10
2022-09-06T04:43:20.793Z,1.00
2022-09-06T04:45:48.832Z,1.00
2022-09-06T04:48:17.274Z,1.10
2022-09-06T04:50:45.373Z,1.13
2022-09-06T04:53:13.260Z,1.10
2022-09-06T04:55:41.329Z,1.00
2022-09-06T04:58:09.430Z,0.97
2022-09-06T05:00:39.000Z,1.40
2022-09-06T05:03:06.998Z,0.90
2022-09-06T05:05:35.030Z,1.00
2022-09-06T05:08:03.129Z,1.25
2022-09-06T05:10:31.072Z,0.80
2022-09-06T05:12:59.021Z,1.00
2022-09-06T05:15:26.965Z,0.95
2022-09-06T05:18:03.933Z,0.90
2022-09-06T05:20:32.328Z,1.08
2022-09-06T05:23:01.645Z,1.05
2022-09-06T05:25:29.676Z,1.13
2022-09-06T05:27:57.590Z,0.90
2022-09-06T05:30:25.557Z,0.88
2022-09-06T05:32:53.489Z,1.08
2022-09-06T05:35:22.751Z,1.02
2022-09-06T05:37:50.692Z,0.75
2022-09-06T05:40:18.753Z,0.90
2022-09-06T05:42:46.685Z,0.90
2022-09-06T05:45:14.747Z,1.10
2022-09-06T05:47:42.757Z,1.02
2022-09-06T05:50:11.381Z,0.95
2022-09-06T05:52:40.816Z,1.08
2022-09-06T05:55:09.951Z,0.80
2022-09-06T05:57:37.833Z,0.93
2022-09-06T06:00:06.842Z,0.82
2022-09-06T06:02:34.842Z,0.80
2022-09-06T06:05:03.385Z,0.82
2022-09-06T06:07:31.412Z,0.70
2022-09-06T06:10:00.844Z,0.75
2022-09-06T06:12:28.785Z,0.90
2022-09-06T06:14:56.845Z,1.08
2022-09-06T06:17:24.999Z,0.85
2022-09-06T06:19:53.587Z,1.00
2022-09-06T06:22:21.620Z,0.90
2022-09-06T06:24:49.685Z,0.90
2022-09-06T06:27:21.658Z,0.93
2022-09-06T06:29:50.740Z,0.90
2022-09-06T06:32:18.596Z,0.75
2022-09-06T06:34:46.458Z,0.80
2022-09-06T06:37:14.487Z,0.90
2022-09-06T06:39:42.401Z,0.90
2022-09-06T06:42:10.474Z,0.82
2022-09-06T06:44:39.861Z,0.82
2022-09-06T06:47:07.909Z,1.08
2022-09-06T06:49:35.789Z,0.75
2022-09-06T06:52:04.356Z,0.82
2022-09-06T06:54:32.222Z,0.70
2022-09-06T06:57:00.242Z,0.70
2022-09-06T06:59:28.322Z,0.77
2022-09-06T07:01:58.816Z,0.73
2022-09-06T07:04:26.870Z,0.80
2022-09-06T07:12:34.040Z,0.60
2022-09-06T07:15:02.044Z,0.75
2022-09-06T07:17:31.283Z,0.70
2022-09-06T07:20:15.198Z,0.88
2022-09-06T07:22:43.795Z,0.77
2022-09-06T07:25:14.387Z,0.90
2022-09-06T07:30:20.314Z,0.50
2022-09-06T07:32:49.886Z,0.82
2022-09-06T07:35:20.500Z,0.55
2022-09-06T07:37:55.980Z,0.55
2022-09-06T07:40:24.573Z,0.73
2022-09-06T07:42:52.552Z,0.70
2022-09-06T07:45:20.845Z,0.90
2022-09-06T07:50:47.406Z,0.60
2022-09-06T07:53:24.538Z,0.73
2022-09-06T07:55:57.229Z,0.90
2022-09-06T07:58:25.301Z,0.77
2022-09-06T08:00:53.176Z,0.80
2022-09-06T08:03:22.767Z,0.88
2022-09-06T08:11:29.814Z,0.70
2022-09-06T08:14:00.060Z,0.70
2022-09-06T08:16:29.687Z,0.63
2022-09-06T08:19:01.293Z,0.70
2022-09-06T08:21:32.235Z,0.63
2022-09-06T08:24:01.907Z,0.57
2022-09-06T08:26:31.174Z,0.60
2022-09-06T08:29:01.398Z,0.60
2022-09-06T08:31:31.139Z,0.57
2022-09-06T08:34:01.929Z,0.50
2022-09-06T08:36:31.570Z,0.50
2022-09-06T08:38:59.991Z,0.68
2022-09-06T08:41:32.271Z,0.70
2022-09-06T08:46:59.220Z,0.68
2022-09-06T08:49:31.634Z,0.63
2022-09-06T08:52:20.304Z,0.40
2022-09-06T08:54:55.180Z,0.60
2022-09-06T08:57:40.272Z,0.80
2022-09-06T09:00:11.913Z,0.73
2022-09-06T09:02:46.109Z,0.50
2022-09-06T09:05:25.629Z,0.60
2022-09-06T09:08:07.605Z,0.50
2022-09-06T09:10:42.569Z,0.60
2022-09-06T09:13:21.380Z,0.50
2022-09-06T09:15:49.361Z,0.50
2022-09-06T09:18:23.931Z,0.60
2022-09-06T09:20:53.745Z,0.73
2022-09-06T09:23:21.614Z,0.60
2022-09-06T09:25:52.893Z,0.50
2022-09-06T09:28:23.832Z,0.60
2022-09-06T09:30:53.202Z,0.50
2022-09-06T09:33:28.102Z,0.80
2022-09-06T09:35:59.484Z,0.65
2022-09-06T09:38:29.075Z,0.55
2022-09-06T09:40:59.513Z,0.60
2022-09-06T09:43:31.344Z,0.60
2022-09-06T09:46:16.276Z,0.55
2022-09-06T09:49:00.234Z,0.65
2022-09-06T09:51:30.924Z,0.60
2022-09-06T09:54:00.183Z,0.70
2022-09-06T09:56:37.698Z,0.98
2022-09-06T09:59:16.618Z,0.55
2022-09-06T10:01:45.072Z,0.80
2022-09-06T10:07:13.244Z,0.77
2022-09-06T10:09:43.932Z,0.68
2022-09-06T10:12:18.718Z,0.60
2022-09-06T10:14:49.232Z,0.60
2022-09-06T10:17:23.461Z,0.60
2022-09-06T10:19:51.515Z,0.60
2022-09-06T10:22:31.449Z,0.70
2022-09-06T10:25:18.379Z,0.73
2022-09-06T10:28:15.952Z,1.02
2022-09-06T10:30:55.102Z,0.50
2022-09-06T10:33:33.514Z,0.60
2022-09-06T10:36:04.601Z,0.88
2022-09-06T10:38:49.625Z,0.52
2022-09-06T10:41:33.281Z,0.65
2022-09-06T10:44:18.368Z,0.60
2022-09-06T10:46:47.042Z,0.77
2022-09-06T10:49:19.181Z,0.60
2022-09-06T10:51:51.940Z,0.63
2022-09-06T10:54:23.474Z,0.63
2022-09-06T10:56:57.206Z,0.52
2022-09-06T10:59:38.199Z,0.60
2022-09-06T11:02:16.363Z,0.57
2022-09-06T11:07:42.059Z,0.52
2022-09-06T11:10:19.820Z,0.60
2022-09-06T11:12:55.472Z,0.70
2022-09-06T11:15:26.561Z,0.77
2022-09-06T11:18:02.429Z,0.60
2022-09-06T11:20:37.073Z,0.70
2022-09-06T11:23:41.703Z,0.60
2022-09-06T11:26:28.869Z,0.85
2022-09-06T11:28:59.333Z,0.70
2022-09-06T11:34:26.599Z,0.60
2022-09-06T11:36:57.406Z,0.60
2022-09-06T11:43:03.194Z,0.70
2022-09-06T11:45:43.906Z,0.55
2022-09-06T11:48:35.230Z,0.50
2022-09-06T11:51:07.863Z,0.50
2022-09-06T11:53:57.800Z,0.70
2022-09-06T11:56:32.163Z,0.60
2022-09-06T11:59:07.806Z,0.57
2022-09-06T12:01:41.110Z,0.50
2022-09-06T12:04:12.194Z,0.60
2022-09-06T12:06:43.142Z,0.70
2022-09-06T12:09:31.710Z,0.77
2022-09-06T12:12:00.481Z,0.80
2022-09-06T12:14:33.282Z,0.60
2022-09-06T12:17:28.812Z,0.60
2022-09-06T12:20:07.240Z,0.60
2022-09-06T12:22:59.149Z,0.80
2022-09-06T12:25:53.073Z,0.50
2022-09-06T12:28:32.790Z,0.60
2022-09-06T12:31:02.888Z,0.60
2022-09-06T12:33:33.628Z,0.60
2022-09-06T12:36:15.094Z,0.90
2022-09-06T12:38:55.817Z,0.60
2022-09-06T12:41:25.238Z,0.60
2022-09-06T12:43:55.823Z,0.60
2022-09-06T12:46:26.942Z,0.70
2022-09-06T12:49:06.938Z,0.60
2022-09-06T12:51:36.302Z,0.50
2022-09-06T12:54:06.941Z,0.60
2022-09-06T12:56:35.807Z,0.70
2022-09-06T12:59:17.143Z,0.60
2022-09-06T13:01:57.034Z,0.73
2022-09-06T13:04:33.825Z,0.60
2022-09-06T13:07:04.525Z,0.60
2022-09-06T13:09:33.328Z,0.63
2022-09-06T13:12:07.052Z,0.60
2022-09-06T13:14:36.217Z,0.65
2022-09-06T13:17:05.621Z,0.60
2022-09-06T13:19:35.893Z,0.60
2022-09-06T13:22:07.525Z,0.50
2022-09-06T13:24:47.440Z,0.70
2022-09-06T13:27:27.165Z,0.50
2022-09-06T13:29:59.506Z,0.68
2022-09-06T13:32:32.415Z,0.70
2022-09-06T13:35:01.272Z,0.70
2022-09-06T13:37:31.568Z,0.70
2022-09-06T13:39:59.936Z,0.70
2022-09-06T13:42:30.314Z,0.60
2022-09-06T13:45:02.000Z,0.60
2022-09-06T13:47:31.789Z,0.65
2022-09-06T13:50:00.409Z,0.77
2022-09-06T13:52:28.373Z,0.70
2022-09-06T13:54:56.460Z,0.90
2022-09-06T13:57:24.842Z,0.57
2022-09-06T13:59:52.771Z,0.90
2022-09-06T14:02:21.149Z,0.88
2022-09-06T14:04:50.828Z,0.70
2022-09-06T14:07:18.684Z,0.68
2022-09-06T14:09:47.706Z,0.60
2022-09-06T14:12:15.643Z,0.65
2022-09-06T14:14:44.637Z,0.70
2022-09-06T14:17:12.676Z,0.52
2022-09-06T14:19:41.461Z,0.70
2022-09-06T14:22:10.722Z,1.00
2022-09-06T14:24:38.804Z,0.80
2022-09-06T14:27:07.248Z,0.90
2022-09-06T14:29:35.746Z,0.70
2022-09-06T14:32:04.611Z,0.70
2022-09-06T14:34:32.730Z,0.80
2022-09-06T14:37:00.601Z,0.90
2022-09-06T14:39:30.173Z,0.75
2022-09-06T14:41:58.068Z,0.60
2022-09-06T14:44:26.060Z,0.70
2022-09-06T14:46:54.864Z,0.60
2022-09-06T14:49:22.825Z,0.68
2022-09-06T14:51:50.709Z,0.70
2022-09-06T14:54:20.309Z,0.70
2022-09-06T14:56:50.376Z,0.63
2022-09-06T14:59:18.409Z,0.80
2022-09-06T15:01:46.590Z,0.70
2022-09-06T15:04:14.550Z,0.60
2022-09-06T15:06:47.094Z,0.65
2022-09-06T15:09:15.667Z,0.80
2022-09-06T15:11:45.775Z,0.90
2022-09-06T15:14:17.122Z,0.95
2022-09-06T15:16:45.779Z,0.82
2022-09-06T15:19:13.908Z,0.60
2022-09-06T15:21:42.216Z,0.70
2022-09-06T15:24:12.255Z,0.70
2022-09-06T15:26:41.130Z,0.63
2022-09-06T15:29:09.929Z,0.65
2022-09-06T15:31:40.073Z,0.70
2022-09-06T15:34:09.039Z,0.80
2022-09-06T15:36:37.656Z,0.70
2022-09-06T15:39:06.706Z,0.77
2022-09-06T15:41:37.163Z,0.70
2022-09-06T15:44:09.798Z,0.98
2022-09-06T15:46:50.620Z,0.80
2022-09-06T15:49:24.377Z,0.60
2022-09-06T15:51:56.221Z,0.80
2022-09-06T15:54:45.341Z,0.65
2022-09-06T15:57:13.657Z,0.80
2022-09-06T15:59:42.017Z,0.82
2022-09-06T16:02:12.026Z,0.60
2022-09-06T16:04:40.316Z,0.73
2022-09-06T16:07:09.796Z,0.77
2022-09-06T16:09:37.735Z,0.82
2022-09-06T16:12:05.955Z,0.90
2022-09-06T16:14:34.904Z,0.70
2022-09-06T16:17:02.969Z,1.00
2022-09-06T16:19:32.360Z,0.57
2022-09-06T16:22:01.047Z,0.80
2022-09-06T16:24:29.312Z,0.50
2022-09-06T16:26:57.307Z,0.70
2022-09-06T16:29:25.350Z,0.73
2022-09-06T16:31:59.720Z,0.60
2022-09-06T16:34:27.992Z,0.80
2022-09-06T16:36:57.284Z,0.70
2022-09-06T16:39:25.448Z,0.80
2022-09-06T16:41:53.614Z,0.80
2022-09-06T16:44:21.609Z,0.85
2022-09-06T16:46:51.390Z,0.70
2022-09-06T16:49:19.809Z,1.00
2022-09-06T16:51:48.394Z,0.80
2022-09-06T16:54:19.111Z,0.90
2022-09-06T16:56:47.341Z,0.85
2022-09-06T16:59:17.362Z,0.98
2022-09-06T17:01:45.906Z,0.60
2022-09-06T17:04:14.355Z,0.80
2022-09-06T17:06:45.741Z,1.17
2022-09-06T17:09:15.713Z,0.85
2022-09-06T17:11:45.193Z,0.77
2022-09-06T17:14:13.137Z,0.93
2022-09-06T17:16:58.547Z,1.02
2022-09-06T17:19:26.854Z,0.90
2022-09-06T17:21:54.945Z,1.02
2022-09-06T17:24:23.105Z,1.05
2022-09-06T17:26:52.490Z,1.08
2022-09-06T17:29:20.545Z,1.00
2022-09-06T17:31:50.252Z,1.40
2022-09-06T17:34:18.356Z,1.05
2022-09-06T17:36:46.352Z,1.17
2022-09-06T17:39:17.704Z,0.90
2022-09-06T17:41:47.337Z,0.98
2022-09-06T17:44:20.060Z,1.00
2022-09-06T17:47:09.087Z,1.20
2022-09-06T17:49:37.034Z,1.10
2022-09-06T17:52:05.131Z,1.13
2022-09-06T17:54:33.522Z,0.90
2022-09-06T17:57:01.545Z,1.00
2022-09-06T17:59:35.037Z,1.33
2022-09-06T18:02:03.605Z,1.50
2022-09-06T18:04:31.646Z,1.40
2022-09-06T18:06:59.544Z,1.13
2022-09-06T18:09:27.715Z,1.20
2022-09-06T18:11:56.170Z,1.33
2022-09-06T18:14:24.017Z,1.30
2022-09-06T18:16:53.889Z,1.40
2022-09-06T18:19:23.228Z,1.45
2022-09-06T18:21:51.901Z,1.63
2022-09-06T18:24:20.130Z,1.50
2022-09-06T18:26:49.177Z,1.25
2022-09-06T18:29:18.530Z,1.38
2022-09-06T18:31:46.530Z,1.25
2022-09-06T18:34:16.723Z,1.27
2022-09-06T18:36:44.619Z,1.65
2022-09-06T18:39:13.323Z,1.20
2022-09-06T18:41:58.469Z,1.30
2022-09-06T18:44:31.418Z,1.00
2022-09-06T18:47:01.569Z,1.10
2022-09-06T18:49:32.637Z,1.10
2022-09-06T18:52:00.978Z,1.20
2022-09-06T18:54:29.001Z,1.30
2022-09-06T18:56:56.968Z,1.23
2022-09-06T18:59:25.249Z,1.10
2022-09-06T19:01:53.233Z,1.30
2022-09-06T19:04:21.552Z,1.27
2022-09-06T19:06:50.856Z,1.67
2022-09-06T19:09:19.112Z,1.75
2022-09-06T19:11:51.697Z,1.80
2022-09-06T19:14:19.966Z,1.35
2022-09-06T19:16:50.149Z,1.30
2022-09-06T19:19:18.515Z,1.50
2022-09-06T19:21:46.436Z,1.80
2022-09-06T19:24:16.295Z,1.77
2022-09-06T19:26:45.235Z,1.05
2022-09-06T19:29:15.699Z,1.52
2022-09-06T19:31:44.244Z,1.00
2022-09-06T19:34:13.739Z,1.25
2022-09-06T19:36:42.068Z,1.38
2022-09-06T19:39:13.257Z,1.38
2022-09-06T19:41:45.343Z,1.30
2022-09-06T19:44:14.793Z,1.33
2022-09-06T19:46:46.002Z,1.65
2022-09-06T19:49:15.252Z,1.30
2022-09-06T19:51:45.352Z,1.50
2022-09-06T19:54:15.609Z,1.50
2022-09-06T19:56:46.188Z,1.30
2022-09-06T19:59:15.316Z,1.17
2022-09-06T20:01:45.288Z,1.30
2022-09-06T20:04:14.974Z,1.30
2022-09-06T20:06:43.225Z,1.30
2022-09-06T20:09:12.289Z,1.10
2022-09-06T20:11:41.756Z,1.10
2022-09-06T20:14:11.885Z,1.20
2022-09-06T20:16:42.036Z,1.20
2022-09-06T20:19:12.112Z,1.15
2022-09-06T20:21:40.136Z,1.10
2022-09-06T20:24:08.317Z,1.30
2022-09-06T20:26:36.289Z,1.20
2022-09-06T20:29:06.731Z,1.33
2022-09-06T20:31:37.617Z,1.42
2022-09-06T20:34:06.888Z,1.40
2022-09-06T20:36:34.907Z,1.52
2022-09-06T20:39:03.583Z,1.38
2022-09-06T20:41:31.554Z,1.50
2022-09-06T20:44:00.991Z,1.40
2022-09-06T20:46:31.129Z,1.60
2022-09-06T20:49:04.398Z,1.52
2022-09-06T20:51:34.306Z,1.30
2022-09-06T20:54:03.611Z,1.50
2022-09-06T20:56:34.358Z,1.60
2022-09-06T20:59:04.221Z,1.60
2022-09-06T21:01:34.808Z,1.77
2022-09-06T21:04:07.219Z,1.52
2022-09-06T21:06:36.770Z,1.60
2022-09-06T21:09:05.312Z,1.55
2022-09-06T21:11:33.409Z,1.55
2022-09-06T21:14:01.446Z,1.40
2022-09-06T21:16:30.273Z,1.70
2022-09-06T21:18:59.693Z,1.88
2022-09-06T21:21:30.335Z,1.80
2022-09-06T21:23:58.257Z,2.03
2022-09-06T21:26:26.620Z,1.35
2022-09-06T21:28:55.115Z,1.35
2022-09-06T21:31:24.399Z,1.60
2022-09-06T21:33:53.821Z,1.95
2022-09-06T21:36:23.246Z,1.70
2022-09-06T21:38:55.604Z,1.92
2022-09-06T21:41:24.589Z,1.60
2022-09-06T21:43:53.701Z,1.80
2022-09-06T21:46:25.291Z,1.90
2022-09-06T21:48:56.095Z,1.88
2022-09-06T21:51:27.358Z,1.80
2022-09-06T21:53:58.027Z,1.85
2022-09-06T21:56:26.602Z,1.83
2022-09-06T21:58:56.513Z,1.52
2022-09-06T22:01:25.130Z,1.50
2022-09-06T22:03:53.150Z,1.60
2022-09-06T22:06:22.788Z,1.40
2022-09-06T22:08:51.076Z,1.45
2022-09-06T22:11:23.393Z,1.70
2022-09-06T22:13:51.971Z,1.50
2022-09-06T22:16:22.476Z,1.70
2022-09-06T22:18:51.650Z,1.30
2022-09-06T22:21:21.243Z,1.25
2022-09-06T22:23:53.020Z,1.25
2022-09-06T22:26:22.937Z,1.48
2022-09-06T22:28:55.347Z,1.70
2022-09-06T22:31:23.479Z,1.67
2022-09-06T22:33:51.588Z,1.30
2022-09-06T22:36:19.898Z,1.40
2022-09-06T22:38:48.383Z,1.52
2022-09-06T22:41:16.292Z,1.80
2022-09-06T22:43:45.733Z,1.63
2022-09-06T22:46:13.888Z,1.75
2022-09-06T22:48:41.848Z,1.27
2022-09-06T22:51:10.421Z,1.60
2022-09-06T22:53:38.386Z,1.50
2022-09-06T22:56:06.534Z,1.25
2022-09-06T22:58:35.493Z,1.63
2022-09-06T23:01:11.219Z,1.67
2022-09-06T23:03:39.783Z,1.98
2022-09-06T23:06:08.137Z,1.70
2022-09-06T23:08:37.186Z,1.50
2022-09-06T23:11:08.042Z,2.15
2022-09-06T23:13:36.186Z,1.60
2022-09-06T23:16:05.969Z,1.75
2022-09-06T23:18:35.807Z,1.42
2022-09-06T23:21:08.121Z,1.40
2022-09-06T23:23:39.195Z,1.50
2022-09-06T23:26:08.136Z,1.55
2022-09-06T23:28:36.902Z,1.30
2022-09-06T23:31:06.294Z,1.40
2022-09-06T23:33:37.469Z,1.63
2022-09-06T23:36:06.309Z,1.38
2022-09-06T23:38:34.782Z,1.20
2022-09-06T23:41:03.334Z,1.40
2022-09-06T23:43:31.550Z,1.48
2022-09-06T23:45:59.630Z,1.13
2022-09-06T23:48:27.997Z,1.13
2022-09-06T23:50:57.269Z,1.00
2022-09-06T23:53:25.261Z,1.20
2022-09-06T23:55:53.174Z,1.10
2022-09-06T23:58:21.414Z,1.33
